createdAt,value
2022-08-31T00:02:39.714Z,102512.56
2022-08-31T00:05:06.992Z,102510.09
2022-08-31T00:07:35.026Z,102511.00
2022-08-31T00:10:14.022Z,102513.16
2022-08-31T00:12:47.581Z,102514.47
2022-08-31T00:15:17.564Z,102510.94
2022-08-31T00:17:44.136Z,102501.53
2022-08-31T00:20:32.611Z,102506.84
2022-08-31T00:23:00.439Z,102508.16
2022-08-31T00:25:26.932Z,102506.78
2022-08-31T00:27:55.562Z,102511.44
2022-08-31T00:30:23.480Z,102508.47
2022-08-31T00:32:50.225Z,102515.31
2022-08-31T00:35:16.932Z,102514.28
2022-08-31T00:37:43.427Z,102519.75
2022-08-31T00:40:10.375Z,102518.38
2022-08-31T00:42:36.980Z,102512.91
2022-08-31T00:45:04.912Z,102511.72
2022-08-31T00:47:31.931Z,102519.53
2022-08-31T00:49:58.562Z,102511.91
2022-08-31T00:52:28.752Z,102513.19
2022-08-31T00:55:29.729Z,102510.94
2022-08-31T00:57:57.415Z,102512.91
2022-08-31T01:00:26.513Z,102503.69
2022-08-31T01:02:53.076Z,102511.66
2022-08-31T01:05:19.695Z,102515.50
2022-08-31T01:07:48.239Z,102521.88
2022-08-31T01:10:16.940Z,102516.94
2022-08-31T01:12:44.307Z,102522.63
2022-08-31T01:15:12.440Z,102515.78
2022-08-31T01:17:39.704Z,102521.81
2022-08-31T01:20:17.395Z,102526.81
2022-08-31T01:23:10.199Z,102517.94
2022-08-31T01:25:38.981Z,102526.00
2022-08-31T01:28:08.078Z,102516.78
2022-08-31T01:30:35.232Z,102520.59
2022-08-31T01:33:01.716Z,102510.84
2022-08-31T01:35:28.805Z,102511.69
2022-08-31T01:37:56.400Z,102510.25
2022-08-31T01:40:50.848Z,102510.94
2022-08-31T01:43:17.768Z,102507.97
2022-08-31T01:45:44.400Z,102506.13
2022-08-31T01:48:11.332Z,102500.94
2022-08-31T01:50:37.980Z,102506.13
2022-08-31T01:53:04.468Z,102496.53
2022-08-31T01:55:31.071Z,102495.22
2022-08-31T01:57:58.900Z,102500.25
2022-08-31T02:00:25.679Z,102499.91
2022-08-31T02:02:52.172Z,102495.97
2022-08-31T02:05:18.783Z,102503.19
2022-08-31T02:07:45.428Z,102505.59
2022-08-31T02:10:11.948Z,102500.66
2022-08-31T02:12:38.482Z,102498.38
2022-08-31T02:15:05.435Z,102501.88
2022-08-31T02:17:31.934Z,102489.22
2022-08-31T02:19:58.658Z,102498.72
2022-08-31T02:22:25.275Z,102491.19
2022-08-31T02:24:51.750Z,102495.00
2022-08-31T02:27:18.350Z,102494.94
2022-08-31T02:29:44.847Z,102494.47
2022-08-31T02:32:20.244Z,102495.69
2022-08-31T02:34:48.312Z,102496.25
2022-08-31T02:37:14.828Z,102497.22
2022-08-31T02:39:43.407Z,102498.66
2022-08-31T02:42:09.918Z,102497.16
2022-08-31T02:44:36.398Z,102493.50
2022-08-31T02:47:02.911Z,102500.75
2022-08-31T02:49:32.060Z,102491.16
2022-08-31T02:51:58.772Z,102490.28
2022-08-31T02:54:25.559Z,102490.59
2022-08-31T02:56:52.067Z,102488.78
2022-08-31T02:59:20.654Z,102487.25
2022-08-31T03:01:47.983Z,102485.84
2022-08-31T03:04:14.540Z,102481.72
2022-08-31T03:06:41.282Z,102482.25
2022-08-31T03:09:07.766Z,102488.94
2022-08-31T03:11:34.262Z,102487.41
2022-08-31T03:14:00.759Z,102486.59
2022-08-31T03:16:27.302Z,102486.91
2022-08-31T03:18:54.019Z,102476.69
2022-08-31T03:21:20.530Z,102476.38
2022-08-31T03:23:47.092Z,102475.38
2022-08-31T03:26:13.696Z,102477.41
2022-08-31T03:28:40.237Z,102478.38
2022-08-31T03:31:08.590Z,102477.16
2022-08-31T03:33:35.330Z,102471.53
2022-08-31T03:36:02.787Z,102472.53
2022-08-31T03:38:29.295Z,102464.69
2022-08-31T03:40:56.298Z,102467.19
2022-08-31T03:43:22.911Z,102472.66
2022-08-31T03:45:49.695Z,102474.94
2022-08-31T03:48:16.461Z,102473.13
2022-08-31T03:50:43.547Z,102479.44
2022-08-31T03:53:10.233Z,102483.31
2022-08-31T03:55:39.179Z,102488.63
2022-08-31T03:58:06.809Z,102490.91
2022-08-31T04:00:33.859Z,102488.78
2022-08-31T04:03:01.393Z,102490.91
2022-08-31T04:05:29.221Z,102492.06
2022-08-31T04:07:55.896Z,102484.59
2022-08-31T04:10:23.073Z,102484.28
2022-08-31T04:12:50.387Z,102487.13
2022-08-31T04:15:17.732Z,102477.31
2022-08-31T04:17:45.184Z,102490.88
2022-08-31T04:20:11.737Z,102498.28
2022-08-31T04:22:39.268Z,102492.66
2022-08-31T04:25:06.310Z,102501.19
2022-08-31T04:27:32.814Z,102499.03
2022-08-31T04:29:59.324Z,102502.41
2022-08-31T04:32:25.864Z,102501.81
2022-08-31T04:34:56.264Z,102506.00
2022-08-31T04:37:23.308Z,102508.47
2022-08-31T04:39:51.154Z,102508.47
2022-08-31T04:42:18.646Z,102503.16
2022-08-31T04:44:45.151Z,102504.53
2022-08-31T04:47:11.644Z,102507.06
2022-08-31T04:49:38.311Z,102507.75
2022-08-31T04:52:04.874Z,102497.94
2022-08-31T04:54:31.795Z,102497.75
2022-08-31T04:56:59.211Z,102500.66
2022-08-31T04:59:27.306Z,102500.38
2022-08-31T05:01:54.720Z,102498.06
2022-08-31T05:04:25.139Z,102506.25
2022-08-31T05:06:51.627Z,102507.13
2022-08-31T05:09:20.781Z,102503.53
2022-08-31T05:11:50.046Z,102506.72
2022-08-31T05:14:16.764Z,102506.94
2022-08-31T05:16:44.989Z,102501.16
2022-08-31T05:19:11.619Z,102506.00
2022-08-31T05:21:40.211Z,102509.72
2022-08-31T05:24:09.713Z,102503.28
2022-08-31T05:26:42.052Z,102511.34
2022-08-31T05:29:09.194Z,102512.91
2022-08-31T05:31:37.719Z,102516.97
2022-08-31T05:34:05.719Z,102508.41
2022-08-31T05:36:33.095Z,102505.47
2022-08-31T05:39:01.438Z,102508.44
2022-08-31T05:41:29.262Z,102513.69
2022-08-31T05:43:55.878Z,102512.63
2022-08-31T05:46:22.581Z,102512.91
2022-08-31T05:48:50.105Z,102501.63
2022-08-31T05:51:18.271Z,102490.88
2022-08-31T05:53:45.483Z,102492.31
2022-08-31T05:56:15.187Z,102482.31
2022-08-31T05:58:46.195Z,102491.38
2022-08-31T06:01:18.083Z,102490.78
2022-08-31T06:03:45.182Z,102511.34
2022-08-31T06:06:12.242Z,102521.91
2022-08-31T06:08:39.587Z,102538.03
2022-08-31T06:11:07.516Z,102545.63
2022-08-31T06:13:34.075Z,102552.03
2022-08-31T06:16:03.932Z,102558.66
2022-08-31T06:18:30.923Z,102561.13
2022-08-31T06:21:02.391Z,102556.69
2022-08-31T06:23:29.976Z,102561.19
2022-08-31T06:26:05.235Z,102564.66
2022-08-31T06:28:32.532Z,102573.09
2022-08-31T06:31:01.643Z,102576.31
2022-08-31T06:33:29.352Z,102575.31
2022-08-31T06:35:56.309Z,102571.41
2022-08-31T06:38:22.878Z,102576.81
2022-08-31T06:40:49.745Z,102583.97
2022-08-31T06:43:16.368Z,102581.47
2022-08-31T06:45:43.558Z,102582.97
2022-08-31T06:48:10.103Z,102585.22
2022-08-31T06:50:38.954Z,102586.91
2022-08-31T06:53:05.447Z,102579.44
2022-08-31T06:55:32.114Z,102580.25
2022-08-31T06:57:59.139Z,102599.34
2022-08-31T07:00:25.735Z,102590.44
2022-08-31T07:02:53.011Z,102591.88
2022-08-31T07:05:24.826Z,102585.44
2022-08-31T07:07:51.585Z,102585.84
2022-08-31T07:10:19.312Z,102599.91
2022-08-31T07:12:45.847Z,102603.75
2022-08-31T07:15:12.383Z,102591.44
2022-08-31T07:17:38.915Z,102598.47
2022-08-31T07:20:05.808Z,102580.66
2022-08-31T07:22:32.306Z,102587.94
2022-08-31T07:24:58.799Z,102600.59
2022-08-31T07:27:25.333Z,102606.38
2022-08-31T07:29:51.838Z,102605.59
2022-08-31T07:32:18.403Z,102598.34
2022-08-31T07:34:45.079Z,102579.84
2022-08-31T07:37:30.258Z,102605.78
2022-08-31T07:40:23.144Z,102598.94
2022-08-31T07:42:49.794Z,102604.75
2022-08-31T07:45:23.307Z,102593.44
2022-08-31T07:47:53.808Z,102566.97
2022-08-31T07:50:21.182Z,102593.25
2022-08-31T07:52:53.861Z,102595.25
2022-08-31T07:55:22.316Z,102585.91
2022-08-31T07:57:50.777Z,102580.88
2022-08-31T08:00:21.651Z,102579.63
2022-08-31T08:02:52.924Z,102578.19
2022-08-31T08:05:27.287Z,102592.41
2022-08-31T08:07:57.759Z,102598.13
2022-08-31T08:10:26.114Z,102576.03
2022-08-31T08:13:05.224Z,102572.81
2022-08-31T08:15:35.529Z,102565.72
2022-08-31T08:18:03.348Z,102600.00
2022-08-31T08:20:37.440Z,102599.34
2022-08-31T08:23:15.007Z,102593.00
2022-08-31T08:25:43.321Z,102581.91
2022-08-31T08:28:38.013Z,102576.94
2022-08-31T08:31:03.915Z,102590.84
2022-08-31T08:33:31.748Z,102591.88
2022-08-31T08:36:03.058Z,102588.94
2022-08-31T08:38:33.373Z,102591.41
2022-08-31T08:41:01.787Z,102583.47
2022-08-31T08:43:32.585Z,102590.78
2022-08-31T08:46:15.188Z,102590.63
2022-08-31T08:48:55.502Z,102576.06
2022-08-31T08:51:26.297Z,102585.03
2022-08-31T08:53:56.934Z,102575.91
2022-08-31T08:56:33.249Z,102563.69
2022-08-31T08:59:00.638Z,102562.59
2022-08-31T09:01:29.135Z,102579.63
2022-08-31T09:04:20.267Z,102580.16
2022-08-31T09:07:22.839Z,102573.59
2022-08-31T09:09:57.372Z,102565.06
2022-08-31T09:12:44.746Z,102578.44
2022-08-31T09:15:50.341Z,102549.28
2022-08-31T09:18:35.304Z,102559.28
2022-08-31T09:21:13.484Z,102574.00
2022-08-31T09:23:48.456Z,102556.97
2022-08-31T09:26:16.914Z,102562.19
2022-08-31T09:28:47.137Z,102562.81
2022-08-31T09:31:37.695Z,102568.22
2022-08-31T09:34:12.488Z,102574.84
2022-08-31T09:36:42.771Z,102590.00
2022-08-31T09:39:38.692Z,102557.75
2022-08-31T09:42:31.283Z,102577.13
2022-08-31T09:45:01.865Z,102582.28
2022-08-31T09:47:48.800Z,102563.44
2022-08-31T09:50:28.189Z,102580.22
2022-08-31T09:53:35.520Z,102549.94
2022-08-31T09:56:15.636Z,102544.25
2022-08-31T09:58:47.558Z,102533.63
2022-08-31T10:01:25.020Z,102555.91
2022-08-31T10:04:08.566Z,102506.41
2022-08-31T10:06:55.664Z,102518.72
2022-08-31T10:09:37.134Z,102525.00
2022-08-31T10:12:07.896Z,102529.03
2022-08-31T10:14:41.148Z,102508.47
2022-08-31T10:17:15.269Z,102529.19
2022-08-31T10:19:51.627Z,102509.97
2022-08-31T10:22:25.579Z,102512.03
2022-08-31T10:25:04.571Z,102527.66
2022-08-31T10:27:38.628Z,102525.81
2022-08-31T10:30:09.487Z,102477.53
2022-08-31T10:32:51.093Z,102512.75
2022-08-31T10:35:22.385Z,102485.59
2022-08-31T10:38:20.149Z,102522.81
2022-08-31T10:40:59.154Z,102496.16
2022-08-31T10:43:32.543Z,102501.00
2022-08-31T10:45:59.657Z,102495.75
2022-08-31T10:48:27.363Z,102506.03
2022-08-31T10:51:20.427Z,102504.66
2022-08-31T10:53:54.804Z,102505.63
2022-08-31T10:56:41.580Z,102489.03
2022-08-31T10:59:27.254Z,102487.84
2022-08-31T11:02:12.190Z,102477.75
2022-08-31T11:05:01.015Z,102440.94
2022-08-31T11:07:33.663Z,102457.50
2022-08-31T11:10:10.376Z,102442.59
2022-08-31T11:12:43.671Z,102461.59
2022-08-31T11:15:22.439Z,102480.16
2022-08-31T11:17:59.259Z,102477.16
2022-08-31T11:20:59.718Z,102461.09
2022-08-31T11:23:50.402Z,102470.31
2022-08-31T11:26:33.887Z,102431.97
2022-08-31T11:29:09.948Z,102436.69
2022-08-31T11:31:37.181Z,102468.91
2022-08-31T11:34:16.397Z,102435.47
2022-08-31T11:36:57.442Z,102461.97
2022-08-31T11:39:30.962Z,102459.47
2022-08-31T11:41:59.113Z,102432.06
2022-08-31T11:44:29.788Z,102442.28
2022-08-31T11:47:08.159Z,102455.78
2022-08-31T11:49:37.799Z,102456.41
2022-08-31T11:52:10.391Z,102453.66
2022-08-31T11:54:42.561Z,102416.13
2022-08-31T11:57:15.894Z,102448.19
2022-08-31T11:59:46.230Z,102444.41
2022-08-31T12:02:22.973Z,102457.09
2022-08-31T12:04:52.018Z,102460.78
2022-08-31T12:07:40.818Z,102435.41
2022-08-31T12:10:34.101Z,102417.75
2022-08-31T12:13:23.043Z,102447.53
2022-08-31T12:16:21.582Z,102436.06
2022-08-31T12:19:00.590Z,102447.00
2022-08-31T12:22:09.291Z,102429.44
2022-08-31T12:24:54.957Z,102454.63
2022-08-31T12:27:24.880Z,102472.56
2022-08-31T12:30:11.375Z,102458.31
2022-08-31T12:32:40.046Z,102466.91
2022-08-31T12:35:19.437Z,102448.09
2022-08-31T12:37:46.352Z,102476.97
2022-08-31T12:40:22.064Z,102467.94
2022-08-31T12:42:53.938Z,102452.34
2022-08-31T12:45:44.065Z,102465.38
2022-08-31T12:48:35.312Z,102454.81
2022-08-31T12:51:05.299Z,102482.75
2022-08-31T12:53:40.842Z,102457.00
2022-08-31T12:56:11.560Z,102491.06
2022-08-31T12:59:04.026Z,102490.22
2022-08-31T13:01:30.931Z,102444.41
2022-08-31T13:04:01.981Z,102461.06
2022-08-31T13:06:34.693Z,102434.72
2022-08-31T13:09:01.847Z,102452.84
2022-08-31T13:11:35.298Z,102463.53
2022-08-31T13:14:24.530Z,102476.78
2022-08-31T13:17:14.906Z,102493.22
2022-08-31T13:19:47.977Z,102460.03
2022-08-31T13:22:16.933Z,102484.06
2022-08-31T13:24:53.808Z,102461.41
2022-08-31T13:27:22.332Z,102447.78
2022-08-31T13:29:50.535Z,102457.41
2022-08-31T13:32:32.302Z,102461.09
2022-08-31T13:35:08.189Z,102422.88
2022-08-31T13:37:39.316Z,102388.97
2022-08-31T13:40:12.592Z,102380.09
2022-08-31T13:42:43.758Z,102420.38
2022-08-31T13:45:26.983Z,102411.28
2022-08-31T13:48:15.567Z,102417.28
2022-08-31T13:50:52.678Z,102429.97
2022-08-31T13:53:39.768Z,102407.91
2022-08-31T13:56:53.320Z,102388.03
2022-08-31T13:59:26.549Z,102410.34
2022-08-31T14:02:02.422Z,102412.00
2022-08-31T14:04:48.626Z,102402.41
2022-08-31T14:07:21.612Z,102390.72
2022-08-31T14:09:55.514Z,102414.94
2022-08-31T14:12:35.461Z,102413.84
2022-08-31T14:15:19.294Z,102436.03
2022-08-31T14:18:23.790Z,102447.13
2022-08-31T14:20:36.883Z,102436.06
2022-08-31T14:23:21.051Z,102438.41
2022-08-31T14:25:47.695Z,102448.22
2022-08-31T14:28:14.215Z,102449.41
2022-08-31T14:30:40.886Z,102453.22
2022-08-31T14:33:15.719Z,102438.69
2022-08-31T14:35:44.443Z,102447.03
2022-08-31T14:38:15.143Z,102446.06
2022-08-31T14:40:45.530Z,102438.94
2022-08-31T14:43:16.390Z,102446.75
2022-08-31T14:45:44.264Z,102432.53
2022-08-31T14:48:13.124Z,102429.97
2022-08-31T14:50:39.723Z,102433.16
2022-08-31T14:53:10.191Z,102445.13
2022-08-31T14:55:39.666Z,102438.00
2022-08-31T14:58:11.533Z,102450.50
2022-08-31T15:00:43.649Z,102417.50
2022-08-31T15:03:11.865Z,102426.22
2022-08-31T15:05:39.323Z,102425.25
2022-08-31T15:08:06.262Z,102419.47
2022-08-31T15:10:33.806Z,102418.94
2022-08-31T15:13:05.547Z,102402.13
2022-08-31T15:15:33.315Z,102414.66
2022-08-31T15:18:04.049Z,102394.44
2022-08-31T15:20:37.385Z,102432.34
2022-08-31T15:23:04.289Z,102404.78
2022-08-31T15:25:30.791Z,102403.53
2022-08-31T15:27:57.963Z,102387.97
2022-08-31T15:30:24.822Z,102402.53
2022-08-31T15:32:54.169Z,102400.00
2022-08-31T15:35:24.383Z,102413.16
2022-08-31T15:37:58.723Z,102422.47
2022-08-31T15:40:29.166Z,102429.75
2022-08-31T15:42:55.974Z,102431.03
2022-08-31T15:45:23.314Z,102428.50
2022-08-31T15:48:08.859Z,102422.00
2022-08-31T15:50:35.978Z,102416.44
2022-08-31T15:53:10.764Z,102434.31
2022-08-31T15:55:40.657Z,102419.72
2022-08-31T15:58:09.394Z,102415.94
2022-08-31T16:00:37.368Z,102395.78
2022-08-31T16:03:06.179Z,102393.44
2022-08-31T16:05:38.773Z,102422.75
2022-08-31T16:08:10.883Z,102402.41
2022-08-31T16:10:41.534Z,102396.25
2022-08-31T16:13:09.079Z,102404.97
2022-08-31T16:15:37.077Z,102395.06
2022-08-31T16:18:05.132Z,102402.09
2022-08-31T16:20:32.778Z,102408.78
2022-08-31T16:23:00.570Z,102387.41
2022-08-31T16:25:41.840Z,102390.41
2022-08-31T16:28:15.071Z,102407.28
2022-08-31T16:30:43.757Z,102408.34
2022-08-31T16:33:11.551Z,102403.75
2022-08-31T16:35:39.237Z,102400.22
2022-08-31T16:38:07.198Z,102396.34
2022-08-31T16:40:34.344Z,102386.22
2022-08-31T16:43:01.653Z,102395.94
2022-08-31T16:45:28.607Z,102388.84
2022-08-31T16:48:15.224Z,102388.81
2022-08-31T16:50:47.152Z,102390.34
2022-08-31T16:53:15.367Z,102409.88
2022-08-31T16:55:44.232Z,102399.91
2022-08-31T16:58:21.607Z,102397.28
2022-08-31T17:01:03.407Z,102414.84
2022-08-31T17:03:30.164Z,102409.69
2022-08-31T17:05:57.105Z,102392.16
2022-08-31T17:08:23.869Z,102386.34
2022-08-31T17:10:51.339Z,102398.81
2022-08-31T17:13:18.022Z,102394.84
2022-08-31T17:15:44.687Z,102420.16
2022-08-31T17:18:11.417Z,102409.63
2022-08-31T17:20:40.893Z,102412.53
2022-08-31T17:23:11.026Z,102424.38
2022-08-31T17:25:37.634Z,102424.78
2022-08-31T17:28:07.903Z,102423.53
2022-08-31T17:30:34.632Z,102417.72
2022-08-31T17:33:01.558Z,102428.50
2022-08-31T17:35:29.519Z,102433.09
2022-08-31T17:37:56.520Z,102442.19
2022-08-31T17:40:23.271Z,102434.94
2022-08-31T17:42:52.017Z,102432.00
2022-08-31T17:45:19.136Z,102444.00
2022-08-31T17:47:45.761Z,102461.88
2022-08-31T17:50:14.072Z,102458.78
2022-08-31T17:52:40.869Z,102461.47
2022-08-31T17:55:07.680Z,102462.31
2022-08-31T17:57:34.493Z,102460.84
2022-08-31T18:00:01.112Z,102469.34
2022-08-31T18:02:34.606Z,102464.16
2022-08-31T18:05:02.297Z,102469.50
2022-08-31T18:07:29.063Z,102461.78
2022-08-31T18:09:55.672Z,102469.63
2022-08-31T18:12:22.881Z,102478.28
2022-08-31T18:14:49.890Z,102482.19
2022-08-31T18:17:17.207Z,102479.66
2022-08-31T18:19:44.835Z,102484.97
2022-08-31T18:22:14.476Z,102491.38
2022-08-31T18:24:41.690Z,102497.53
2022-08-31T18:27:10.078Z,102487.97
2022-08-31T18:29:37.697Z,102494.09
2022-08-31T18:32:05.675Z,102494.84
2022-08-31T18:34:37.171Z,102497.81
2022-08-31T18:37:04.302Z,102493.41
2022-08-31T18:39:52.281Z,102498.66
2022-08-31T18:42:38.783Z,102508.50
2022-08-31T18:45:20.969Z,102506.50
2022-08-31T18:48:20.903Z,102504.56
2022-08-31T18:50:45.119Z,102505.78
2022-08-31T18:53:15.368Z,102504.25
2022-08-31T18:55:50.395Z,102506.50
2022-08-31T18:58:17.011Z,102508.06
2022-08-31T19:00:43.885Z,102500.25
2022-08-31T19:03:10.591Z,102504.13
2022-08-31T19:05:40.859Z,102516.84
2022-08-31T19:08:07.591Z,102514.06
2022-08-31T19:10:34.816Z,102515.44
2022-08-31T19:13:05.437Z,102517.50
2022-08-31T19:15:39.556Z,102518.06
2022-08-31T19:18:06.366Z,102511.19
2022-08-31T19:20:33.528Z,102509.44
2022-08-31T19:23:00.568Z,102507.53
2022-08-31T19:25:27.402Z,102507.13
2022-08-31T19:27:55.836Z,102507.66
2022-08-31T19:30:27.867Z,102503.88
2022-08-31T19:32:56.138Z,102510.63
2022-08-31T19:35:22.981Z,102504.34
2022-08-31T19:37:51.917Z,102501.44
2022-08-31T19:40:19.231Z,102508.00
2022-08-31T19:43:42.428Z,102500.88
2022-08-31T19:45:42.925Z,102499.78
2022-08-31T19:50:42.003Z,102508.13
2022-08-31T19:53:11.328Z,102506.19
2022-08-31T19:55:38.000Z,102504.50
2022-08-31T19:58:05.146Z,102498.19
2022-08-31T20:00:36.047Z,102506.31
2022-08-31T20:03:04.414Z,102503.28
2022-08-31T20:05:31.653Z,102507.22
2022-08-31T20:07:58.265Z,102514.38
2022-08-31T20:10:24.896Z,102509.09
2022-08-31T20:12:56.571Z,102511.75
2022-08-31T20:15:23.224Z,102509.41
2022-08-31T20:17:57.142Z,102510.38
2022-08-31T20:20:24.501Z,102511.09
2022-08-31T20:22:54.057Z,102512.91
2022-08-31T20:25:26.243Z,102509.63
2022-08-31T20:27:53.910Z,102511.09
2022-08-31T20:30:20.559Z,102512.28
2022-08-31T20:32:47.189Z,102512.53
2022-08-31T20:35:13.956Z,102516.03
2022-08-31T20:37:40.811Z,102519.91
2022-08-31T20:40:16.363Z,102516.09
2022-08-31T20:42:43.268Z,102519.97
2022-08-31T20:45:10.103Z,102519.78
2022-08-31T20:47:55.331Z,102521.25
2022-08-31T20:50:21.832Z,102522.94
2022-08-31T20:52:48.502Z,102521.81
2022-08-31T20:55:15.049Z,102517.75
2022-08-31T20:57:41.574Z,102529.00
2022-08-31T21:00:10.386Z,102517.31
2022-08-31T21:02:39.719Z,102520.06
2022-08-31T21:05:36.415Z,102523.09
2022-08-31T21:07:58.022Z,102524.97
2022-08-31T21:10:36.393Z,102521.97
2022-08-31T21:13:04.127Z,102521.47
2022-08-31T21:15:30.758Z,102518.47
2022-08-31T21:17:59.421Z,102515.81
2022-08-31T21:20:26.518Z,102517.50
2022-08-31T21:22:53.334Z,102523.06
2022-08-31T21:25:20.229Z,102515.19
2022-08-31T21:27:46.974Z,102513.88
2022-08-31T21:30:13.615Z,102515.25
2022-08-31T21:32:43.005Z,102520.09
2022-08-31T21:35:11.382Z,102513.91
2022-08-31T21:37:38.254Z,102509.06
2022-08-31T21:40:06.054Z,102504.38
2022-08-31T21:42:32.641Z,102506.06
2022-08-31T21:44:59.172Z,102503.22
2022-08-31T21:47:26.118Z,102505.09
2022-08-31T21:49:53.334Z,102504.25
2022-08-31T21:52:20.066Z,102502.59
2022-08-31T21:54:47.937Z,102505.09
2022-08-31T21:57:15.880Z,102501.25
2022-08-31T21:59:42.384Z,102504.47
2022-08-31T22:02:11.546Z,102507.97
2022-08-31T22:04:41.431Z,102509.31
2022-08-31T22:07:08.442Z,102503.94
2022-08-31T22:09:36.722Z,102506.97
2022-08-31T22:12:06.656Z,102505.31
2022-08-31T22:14:36.470Z,102506.31
2022-08-31T22:17:05.626Z,102504.50
2022-08-31T22:19:36.031Z,102506.50
2022-08-31T22:22:06.918Z,102507.97
2022-08-31T22:24:35.946Z,102502.47
2022-08-31T22:27:05.938Z,102512.16
2022-08-31T22:29:33.853Z,102512.66
2022-08-31T22:32:03.293Z,102515.50
2022-08-31T22:34:29.842Z,102514.81
2022-08-31T22:36:56.919Z,102514.16
2022-08-31T22:39:26.853Z,102515.34
2022-08-31T22:41:53.627Z,102510.63
2022-08-31T22:44:22.305Z,102514.63
2022-08-31T22:46:49.106Z,102513.66
2022-08-31T22:49:15.877Z,102514.16
2022-08-31T22:51:44.100Z,102513.81
2022-08-31T22:54:11.016Z,102517.31
2022-08-31T22:56:38.607Z,102507.94
2022-08-31T22:59:11.566Z,102504.59
2022-08-31T23:01:44.424Z,102508.28
2022-08-31T23:04:15.038Z,102508.63
2022-08-31T23:06:41.687Z,102503.59
2022-08-31T23:09:10.997Z,102500.25
2022-08-31T23:11:38.528Z,102491.72
2022-08-31T23:14:08.861Z,102493.06
2022-08-31T23:16:38.272Z,102498.53
2022-08-31T23:19:12.119Z,102499.38
2022-08-31T23:21:47.643Z,102488.69
2022-08-31T23:24:33.452Z,102505.38
2022-08-31T23:27:04.289Z,102491.34
2022-08-31T23:29:52.419Z,102487.72
2022-08-31T23:32:21.182Z,102489.56
2022-08-31T23:34:50.535Z,102482.88
2022-08-31T23:37:17.784Z,102483.69
2022-08-31T23:39:46.237Z,102493.22
2022-08-31T23:42:13.993Z,102480.69
2022-08-31T23:44:43.589Z,102490.53
2022-08-31T23:47:16.924Z,102483.34
2022-08-31T23:49:44.530Z,102475.84
2022-08-31T23:52:12.141Z,102476.03
2022-08-31T23:54:39.155Z,102473.50
2022-08-31T23:57:08.423Z,102472.53
2022-08-31T23:59:52.777Z,102482.00
